createdAt,value
2022-08-22T00:00:21.263Z,86.33
2022-08-22T00:02:43.552Z,83.83
2022-08-22T00:02:45.810Z,83.48
2022-08-22T00:02:58.682Z,84.79
2022-08-22T00:03:00.023Z,84.92
2022-08-22T00:03:04.982Z,79.75
2022-08-22T00:03:12.645Z,84.82
2022-08-22T00:06:08.125Z,87.61
2022-08-22T00:09:05.951Z,87.05
2022-08-22T00:11:43.586Z,87.40
2022-08-22T00:14:20.275Z,86.84
2022-08-22T00:17:24.046Z,87.17
2022-08-22T00:20:03.362Z,86.66
2022-08-22T00:22:53.800Z,87.18
2022-08-22T00:26:03.272Z,87.51
2022-08-22T00:29:09.889Z,87.86
2022-08-22T00:31:52.254Z,87.43
2022-08-22T00:34:22.865Z,87.61
2022-08-22T00:37:02.608Z,87.64
2022-08-22T00:40:03.352Z,87.50
2022-08-22T00:42:38.098Z,87.49
2022-08-22T00:45:52.553Z,87.62
2022-08-22T00:48:32.877Z,88.16
2022-08-22T00:51:28.079Z,87.90
2022-08-22T00:54:28.963Z,88.58
2022-08-22T00:57:19.373Z,88.54
2022-08-22T00:59:56.720Z,88.55
2022-08-22T01:02:28.153Z,89.20
2022-08-22T01:05:41.089Z,89.06
2022-08-22T01:08:35.631Z,89.05
2022-08-22T01:11:03.867Z,88.86
2022-08-22T01:14:01.371Z,88.96
2022-08-22T01:16:56.255Z,88.66
2022-08-22T01:19:57.917Z,88.34
2022-08-22T01:22:44.535Z,88.64
2022-08-22T01:25:34.739Z,88.11
2022-08-22T01:28:23.385Z,88.32
2022-08-22T01:31:32.756Z,88.17
2022-08-22T01:34:56.716Z,88.22
2022-08-22T01:37:43.964Z,88.80
2022-08-22T01:40:47.553Z,88.44
2022-08-22T01:44:18.180Z,88.01
2022-08-22T01:47:05.378Z,88.21
2022-08-22T01:49:33.611Z,88.55
2022-08-22T01:52:11.946Z,88.15
2022-08-22T01:55:02.482Z,87.58
2022-08-22T01:57:30.859Z,87.93
2022-08-22T02:00:09.054Z,88.33
2022-08-22T02:02:52.829Z,87.64
2022-08-22T02:05:27.934Z,87.98
2022-08-22T02:08:20.274Z,88.84
2022-08-22T02:11:06.276Z,89.07
2022-08-22T02:13:46.631Z,88.02
2022-08-22T02:16:25.717Z,87.79
2022-08-22T02:19:16.494Z,88.46
2022-08-22T02:22:02.391Z,87.87
2022-08-22T02:24:33.685Z,88.58
2022-08-22T02:27:31.990Z,88.68
2022-08-22T02:30:06.639Z,88.87
2022-08-22T02:32:40.646Z,89.41
2022-08-22T02:35:17.376Z,89.64
2022-08-22T02:38:20.061Z,89.41
2022-08-22T02:41:02.984Z,89.44
2022-08-22T02:43:45.588Z,89.76
2022-08-22T02:46:17.841Z,90.61
2022-08-22T02:48:58.380Z,89.95
2022-08-22T02:51:27.454Z,88.94
2022-08-22T02:53:58.210Z,88.68
2022-08-22T02:56:45.986Z,89.11
2022-08-22T02:59:37.132Z,89.23
2022-08-22T03:02:38.322Z,89.65
2022-08-22T03:05:15.816Z,90.29
2022-08-22T03:08:02.821Z,89.85
2022-08-22T03:10:41.615Z,89.99
2022-08-22T03:13:25.526Z,90.56
2022-08-22T03:16:04.844Z,90.68
2022-08-22T03:18:54.928Z,90.01
2022-08-22T03:21:36.627Z,89.56
2022-08-22T03:24:35.319Z,88.79
2022-08-22T03:27:31.414Z,90.19
2022-08-22T03:30:18.466Z,90.00
2022-08-22T03:32:49.309Z,89.42
2022-08-22T03:35:44.409Z,89.16
2022-08-22T03:38:34.678Z,88.90
2022-08-22T03:41:34.126Z,88.80
2022-08-22T03:44:20.997Z,88.90
2022-08-22T03:47:28.594Z,89.02
2022-08-22T03:50:14.287Z,88.65
2022-08-22T03:53:04.215Z,88.59
2022-08-22T03:56:06.637Z,89.35
2022-08-22T03:58:40.808Z,89.05
2022-08-22T04:01:19.621Z,89.42
2022-08-22T04:04:31.977Z,89.66
2022-08-22T04:07:31.403Z,89.04
2022-08-22T04:10:50.072Z,89.73
2022-08-22T04:13:55.927Z,89.59
2022-08-22T04:16:43.136Z,90.98
2022-08-22T04:19:55.496Z,90.57
2022-08-22T04:22:42.735Z,90.05
2022-08-22T04:25:23.806Z,89.25
2022-08-22T04:28:01.549Z,89.09
2022-08-22T04:31:06.248Z,89.28
2022-08-22T04:33:53.622Z,89.25
2022-08-22T04:36:28.294Z,89.13
2022-08-22T04:39:13.326Z,89.06
2022-08-22T04:42:11.157Z,89.73
2022-08-22T04:44:54.080Z,88.74
2022-08-22T04:47:39.783Z,88.63
2022-08-22T04:50:21.461Z,89.78
2022-08-22T04:53:04.651Z,90.18
2022-08-22T04:55:43.528Z,88.99
2022-08-22T04:58:47.005Z,88.93
2022-08-22T05:01:37.519Z,88.62
2022-08-22T05:04:15.004Z,88.49
2022-08-22T05:06:50.029Z,88.30
2022-08-22T05:09:24.438Z,87.93
2022-08-22T05:11:58.364Z,88.04
2022-08-22T05:14:51.538Z,88.31
2022-08-22T05:17:27.550Z,87.83
2022-08-22T05:20:00.754Z,87.97
2022-08-22T05:22:33.282Z,87.81
2022-08-22T05:25:11.266Z,87.53
2022-08-22T05:27:44.605Z,88.13
2022-08-22T05:30:21.345Z,88.00
2022-08-22T05:32:58.132Z,87.44
2022-08-22T05:35:44.965Z,86.78
2022-08-22T05:38:35.170Z,86.61
2022-08-22T05:41:11.032Z,86.62
2022-08-22T05:43:44.288Z,86.57
2022-08-22T05:46:27.184Z,86.32
2022-08-22T05:49:02.721Z,85.92
2022-08-22T05:51:45.813Z,85.26
2022-08-22T05:54:33.885Z,84.42
2022-08-22T05:57:17.419Z,84.32
2022-08-22T05:59:52.148Z,83.93
2022-08-22T06:02:28.718Z,84.23
2022-08-22T06:05:03.533Z,83.96
2022-08-22T06:07:46.762Z,84.16
2022-08-22T06:10:36.447Z,84.09
2022-08-22T06:13:24.608Z,84.11
2022-08-22T06:15:56.963Z,82.86
2022-08-22T06:18:27.574Z,82.14
2022-08-22T06:20:58.227Z,81.33
2022-08-22T06:23:45.727Z,80.82
2022-08-22T06:26:20.787Z,80.39
2022-08-22T06:28:55.159Z,80.22
2022-08-22T06:31:36.903Z,78.09
2022-08-22T06:34:11.335Z,78.15
2022-08-22T06:36:43.209Z,77.99
2022-08-22T06:39:16.720Z,76.85
2022-08-22T06:41:53.878Z,77.49
2022-08-22T06:44:45.739Z,76.37
2022-08-22T06:47:23.787Z,75.53
2022-08-22T06:50:02.176Z,75.92
2022-08-22T06:52:35.109Z,76.13
2022-08-22T06:55:08.630Z,75.41
2022-08-22T06:57:42.342Z,74.13
2022-08-22T07:00:15.518Z,71.41
2022-08-22T07:02:48.923Z,71.44
2022-08-22T07:05:24.576Z,72.21
2022-08-22T07:07:53.336Z,71.98
2022-08-22T07:10:24.384Z,70.06
2022-08-22T07:12:56.952Z,66.18
2022-08-22T07:16:02.095Z,66.03
2022-08-22T07:18:32.088Z,67.20
2022-08-22T07:21:04.720Z,68.05
2022-08-22T07:23:36.826Z,67.64
2022-08-22T07:26:27.496Z,67.00
2022-08-22T07:29:20.370Z,66.77
2022-08-22T07:32:07.787Z,66.68
2022-08-22T07:35:16.100Z,66.04
2022-08-22T07:37:57.299Z,66.58
2022-08-22T07:40:44.158Z,66.77
2022-08-22T07:43:38.373Z,66.99
2022-08-22T07:46:37.563Z,65.92
2022-08-22T07:49:23.867Z,65.89
2022-08-22T07:51:55.848Z,65.91
2022-08-22T07:54:41.134Z,64.77
2022-08-22T07:57:21.379Z,62.76
2022-08-22T07:59:56.405Z,62.33
2022-08-22T08:02:26.025Z,62.79
2022-08-22T08:04:58.087Z,63.69
2022-08-22T08:07:29.349Z,62.77
2022-08-22T08:10:05.959Z,61.06
2022-08-22T08:12:40.596Z,61.45
2022-08-22T08:15:15.584Z,60.95
2022-08-22T08:17:47.916Z,59.61
2022-08-22T08:20:20.272Z,60.57
2022-08-22T08:22:50.475Z,60.23
2022-08-22T08:25:28.865Z,60.07
2022-08-22T08:28:19.744Z,60.39
2022-08-22T08:31:07.912Z,58.30
2022-08-22T08:33:41.086Z,57.54
2022-08-22T08:36:21.274Z,58.38
2022-08-22T08:39:14.209Z,58.62
2022-08-22T08:42:04.432Z,58.82
2022-08-22T08:44:54.762Z,59.77
2022-08-22T08:47:22.915Z,59.37
2022-08-22T08:50:03.304Z,60.27
2022-08-22T08:52:42.881Z,60.30
2022-08-22T08:55:29.849Z,60.39
2022-08-22T08:58:17.759Z,60.62
2022-08-22T09:01:12.875Z,61.46
2022-08-22T09:04:38.963Z,61.25
2022-08-22T09:07:47.878Z,61.91
2022-08-22T09:10:19.498Z,62.63
2022-08-22T09:13:13.207Z,62.42
2022-08-22T09:15:41.683Z,62.21
2022-08-22T09:18:37.415Z,61.99
2022-08-22T09:21:37.047Z,62.31
2022-08-22T09:24:18.026Z,62.54
2022-08-22T09:26:52.404Z,62.56
2022-08-22T09:29:54.776Z,62.47
2022-08-22T09:32:48.804Z,62.35
2022-08-22T09:35:26.294Z,62.36
2022-08-22T09:38:00.764Z,61.89
2022-08-22T09:40:51.780Z,61.51
2022-08-22T09:43:33.611Z,61.55
2022-08-22T09:46:16.736Z,61.23
2022-08-22T09:49:10.370Z,60.36
2022-08-22T09:51:49.005Z,59.99
2022-08-22T09:54:33.931Z,58.60
2022-08-22T09:57:29.082Z,56.43
2022-08-22T10:00:16.459Z,55.77
2022-08-22T10:02:58.992Z,54.94
2022-08-22T10:05:44.232Z,55.48
2022-08-22T10:08:34.859Z,54.24
2022-08-22T10:11:15.715Z,53.94
2022-08-22T10:14:12.635Z,53.19
2022-08-22T10:17:13.271Z,53.36
2022-08-22T10:19:55.606Z,53.10
2022-08-22T10:22:44.784Z,54.57
2022-08-22T10:25:50.876Z,54.52
2022-08-22T10:28:24.737Z,54.54
2022-08-22T10:31:01.105Z,54.30
2022-08-22T10:33:42.242Z,53.50
2022-08-22T10:36:23.770Z,54.14
2022-08-22T10:38:58.168Z,53.65
2022-08-22T10:41:41.735Z,54.52
2022-08-22T10:44:24.164Z,52.97
2022-08-22T10:47:07.301Z,51.79
2022-08-22T10:49:59.271Z,51.58
2022-08-22T10:52:43.345Z,51.25
2022-08-22T10:55:24.626Z,50.46
2022-08-22T10:57:59.546Z,50.31
2022-08-22T11:00:50.477Z,49.30
2022-08-22T11:03:23.546Z,48.74
2022-08-22T11:06:03.774Z,48.97
2022-08-22T11:09:08.514Z,47.35
2022-08-22T11:11:56.346Z,46.58
2022-08-22T11:14:59.868Z,45.45
2022-08-22T11:18:10.757Z,44.83
2022-08-22T11:20:56.251Z,44.42
2022-08-22T11:23:44.844Z,43.15
2022-08-22T11:26:46.820Z,44.12
2022-08-22T11:29:21.826Z,44.11
2022-08-22T11:32:06.455Z,43.41
2022-08-22T11:34:57.851Z,43.78
2022-08-22T11:37:47.842Z,42.73
2022-08-22T11:40:38.815Z,41.63
2022-08-22T11:43:18.519Z,41.62
2022-08-22T11:45:53.753Z,40.62
2022-08-22T11:48:50.166Z,39.36
2022-08-22T11:51:37.642Z,40.26
2022-08-22T11:54:21.766Z,39.91
2022-08-22T11:57:08.954Z,40.28
2022-08-22T11:59:43.486Z,39.69
2022-08-22T12:02:41.931Z,40.03
2022-08-22T12:05:24.404Z,39.39
2022-08-22T12:08:04.373Z,39.72
2022-08-22T12:10:37.017Z,39.98
2022-08-22T12:13:21.032Z,40.24
2022-08-22T12:16:11.441Z,38.89
2022-08-22T12:18:55.831Z,39.00
2022-08-22T12:21:46.042Z,39.26
2022-08-22T12:24:31.807Z,38.69
2022-08-22T12:27:28.531Z,39.28
2022-08-22T12:30:12.917Z,38.81
2022-08-22T12:32:54.998Z,38.29
2022-08-22T12:35:44.075Z,39.06
2022-08-22T12:38:50.292Z,39.31
2022-08-22T12:41:35.516Z,38.47
2022-08-22T12:44:31.194Z,37.86
2022-08-22T12:47:25.435Z,36.51
2022-08-22T12:50:19.078Z,37.03
2022-08-22T12:53:07.090Z,38.50
2022-08-22T12:55:55.811Z,37.76
2022-08-22T12:58:46.836Z,38.15
2022-08-22T13:01:24.212Z,38.95
2022-08-22T13:04:12.668Z,39.41
2022-08-22T13:07:22.559Z,40.86
2022-08-22T13:10:03.634Z,40.92
2022-08-22T13:12:45.491Z,39.96
2022-08-22T13:15:29.493Z,41.37
2022-08-22T13:18:25.103Z,41.59
2022-08-22T13:20:55.771Z,41.13
2022-08-22T13:23:25.491Z,40.63
2022-08-22T13:26:09.307Z,40.34
2022-08-22T13:29:00.274Z,40.06
2022-08-22T13:31:42.413Z,39.99
2022-08-22T13:34:39.918Z,39.34
2022-08-22T13:37:24.372Z,39.90
2022-08-22T13:39:59.142Z,40.32
2022-08-22T13:42:34.539Z,40.22
2022-08-22T13:45:15.865Z,40.74
2022-08-22T13:47:52.139Z,40.46
2022-08-22T13:50:27.120Z,39.44
2022-08-22T13:53:00.893Z,39.35
2022-08-22T13:55:32.662Z,39.55
2022-08-22T13:58:27.412Z,40.19
2022-08-22T14:01:01.852Z,40.80
2022-08-22T14:03:48.801Z,41.75
2022-08-22T14:06:44.005Z,41.33
2022-08-22T14:09:33.260Z,42.40
2022-08-22T14:12:11.941Z,41.83
2022-08-22T14:14:47.345Z,42.12
2022-08-22T14:17:23.394Z,41.60
2022-08-22T14:20:01.505Z,41.55
2022-08-22T14:22:35.694Z,41.83
2022-08-22T14:25:26.768Z,41.83
2022-08-22T14:28:03.077Z,42.22
2022-08-22T14:31:00.611Z,41.43
2022-08-22T14:33:42.678Z,41.86
2022-08-22T14:36:18.274Z,41.60
2022-08-22T14:39:12.050Z,41.15
2022-08-22T14:41:56.272Z,39.72
2022-08-22T14:44:32.906Z,40.26
2022-08-22T14:47:32.357Z,38.89
2022-08-22T14:50:00.383Z,37.89
2022-08-22T14:52:49.424Z,38.37
2022-08-22T14:55:22.814Z,38.01
2022-08-22T14:57:57.270Z,39.01
2022-08-22T15:00:44.948Z,40.26
2022-08-22T15:03:27.932Z,41.00
2022-08-22T15:06:01.765Z,41.72
2022-08-22T15:08:36.756Z,42.59
2022-08-22T15:11:27.516Z,43.00
2022-08-22T15:14:23.803Z,43.03
2022-08-22T15:16:57.188Z,43.15
2022-08-22T15:19:48.278Z,42.61
2022-08-22T15:22:28.302Z,43.58
2022-08-22T15:24:57.206Z,43.72
2022-08-22T15:27:27.694Z,44.12
2022-08-22T15:30:01.276Z,44.46
2022-08-22T15:32:36.117Z,44.85
2022-08-22T15:35:31.854Z,45.80
2022-08-22T15:38:02.199Z,46.35
2022-08-22T15:40:40.470Z,47.32
2022-08-22T15:43:35.049Z,48.08
2022-08-22T15:46:17.921Z,48.68
2022-08-22T15:49:00.913Z,49.20
2022-08-22T15:52:05.858Z,49.62
2022-08-22T15:54:54.999Z,49.74
2022-08-22T15:57:32.655Z,50.06
2022-08-22T16:00:28.254Z,50.42
2022-08-22T16:03:23.115Z,50.99
2022-08-22T16:05:56.485Z,51.50
2022-08-22T16:08:24.762Z,51.60
2022-08-22T16:11:03.698Z,52.34
2022-08-22T16:13:38.170Z,52.61
2022-08-22T16:16:47.829Z,52.87
2022-08-22T16:19:24.175Z,53.02
2022-08-22T16:21:55.217Z,52.82
2022-08-22T16:24:24.151Z,53.04
2022-08-22T16:26:53.621Z,53.04
2022-08-22T16:29:42.109Z,53.31
2022-08-22T16:32:12.724Z,53.34
2022-08-22T16:34:46.045Z,53.78
2022-08-22T16:37:22.312Z,53.91
2022-08-22T16:40:03.836Z,54.15
2022-08-22T16:42:42.482Z,54.20
2022-08-22T16:45:29.865Z,54.16
2022-08-22T16:47:58.859Z,53.93
2022-08-22T16:50:35.809Z,53.96
2022-08-22T16:53:22.605Z,53.67
2022-08-22T16:56:32.735Z,53.76
2022-08-22T16:59:23.411Z,55.08
2022-08-22T17:02:11.324Z,54.58
2022-08-22T17:04:53.182Z,54.44
2022-08-22T17:08:06.086Z,54.88
2022-08-22T17:10:34.348Z,54.94
2022-08-22T17:13:26.286Z,54.82
2022-08-22T17:16:21.534Z,54.61
2022-08-22T17:19:40.903Z,54.66
2022-08-22T17:22:12.301Z,55.11
2022-08-22T17:24:55.540Z,55.14
2022-08-22T17:27:27.467Z,55.31
2022-08-22T17:30:39.513Z,55.38
2022-08-22T17:33:35.245Z,55.67
2022-08-22T17:36:31.226Z,55.61
2022-08-22T17:39:20.628Z,55.95
2022-08-22T17:42:28.786Z,55.93
2022-08-22T17:45:16.034Z,57.06
2022-08-22T17:47:51.686Z,58.53
2022-08-22T17:50:27.081Z,59.96
2022-08-22T17:53:04.965Z,61.33
2022-08-22T17:56:05.420Z,62.63
2022-08-22T17:58:44.409Z,63.56
2022-08-22T18:01:44.162Z,63.74
2022-08-22T18:04:23.219Z,63.55
2022-08-22T18:07:25.928Z,64.38
2022-08-22T18:10:15.525Z,64.74
2022-08-22T18:13:11.117Z,64.48
2022-08-22T18:15:54.975Z,64.46
2022-08-22T18:18:42.916Z,64.94
2022-08-22T18:21:44.615Z,66.36
2022-08-22T18:24:49.517Z,65.88
2022-08-22T18:27:41.345Z,66.87
2022-08-22T18:30:44.461Z,68.17
2022-08-22T18:33:37.067Z,68.08
2022-08-22T18:36:28.929Z,68.06
2022-08-22T18:39:21.656Z,68.09
2022-08-22T18:42:28.885Z,68.68
2022-08-22T18:45:05.466Z,68.71
2022-08-22T18:47:36.731Z,68.24
2022-08-22T18:50:43.147Z,69.03
2022-08-22T18:53:38.710Z,70.40
2022-08-22T18:56:22.221Z,69.66
2022-08-22T18:59:06.372Z,69.65
2022-08-22T19:01:47.782Z,70.11
2022-08-22T19:04:38.173Z,70.37
2022-08-22T19:07:35.688Z,70.81
2022-08-22T19:10:10.193Z,71.54
2022-08-22T19:12:57.189Z,71.77
2022-08-22T19:15:48.987Z,72.34
2022-08-22T19:18:39.728Z,72.85
2022-08-22T19:21:48.593Z,73.00
2022-08-22T19:24:20.009Z,73.14
2022-08-22T19:27:19.303Z,73.57
2022-08-22T19:29:47.594Z,73.80
2022-08-22T19:32:46.921Z,73.95
2022-08-22T19:35:26.642Z,74.49
2022-08-22T19:38:04.224Z,74.66
2022-08-22T19:40:44.663Z,74.80
2022-08-22T19:43:44.059Z,74.98
2022-08-22T19:46:17.153Z,74.99
2022-08-22T19:48:52.870Z,75.10
2022-08-22T19:51:22.707Z,74.77
2022-08-22T19:54:00.371Z,74.37
2022-08-22T19:57:00.571Z,74.75
2022-08-22T19:59:50.780Z,74.59
2022-08-22T20:02:26.936Z,75.09
2022-08-22T20:05:21.562Z,75.31
2022-08-22T20:08:17.404Z,75.01
2022-08-22T20:11:12.266Z,74.79
2022-08-22T20:13:44.251Z,74.80
2022-08-22T20:16:17.910Z,74.76
2022-08-22T20:19:08.266Z,74.47
2022-08-22T20:22:00.767Z,74.60
2022-08-22T20:24:45.060Z,74.27
2022-08-22T20:27:32.898Z,74.19
2022-08-22T20:30:39.830Z,73.88
2022-08-22T20:33:09.793Z,74.07
2022-08-22T20:35:43.447Z,74.62
2022-08-22T20:38:18.080Z,74.07
2022-08-22T20:41:21.072Z,74.24
2022-08-22T20:44:13.166Z,74.79
2022-08-22T20:47:06.275Z,74.71
2022-08-22T20:49:47.452Z,74.76
2022-08-22T20:52:37.541Z,74.64
2022-08-22T20:55:16.591Z,74.74
2022-08-22T20:58:00.643Z,74.35
2022-08-22T21:00:51.604Z,74.92
2022-08-22T21:03:25.683Z,75.73
2022-08-22T21:05:54.008Z,75.77
2022-08-22T21:08:26.274Z,75.63
2022-08-22T21:11:24.094Z,76.55
2022-08-22T21:13:53.578Z,76.64
2022-08-22T21:16:32.088Z,77.03
2022-08-22T21:19:04.271Z,76.99
2022-08-22T21:21:35.715Z,76.79
2022-08-22T21:24:08.472Z,77.26
2022-08-22T21:26:46.477Z,77.31
2022-08-22T21:29:14.723Z,77.22
2022-08-22T21:31:51.375Z,77.10
2022-08-22T21:34:31.825Z,77.39
2022-08-22T21:37:07.567Z,77.37
2022-08-22T21:39:42.937Z,77.62
2022-08-22T21:42:23.078Z,77.77
2022-08-22T21:44:57.679Z,77.71
2022-08-22T21:47:31.712Z,77.80
2022-08-22T21:50:02.287Z,78.38
2022-08-22T21:52:34.283Z,78.57
2022-08-22T21:55:30.739Z,78.60
2022-08-22T21:58:35.912Z,78.34
2022-08-22T22:01:30.639Z,78.77
2022-08-22T22:04:01.011Z,78.60
2022-08-22T22:06:29.342Z,78.28
2022-08-22T22:08:57.694Z,78.37
2022-08-22T22:11:26.064Z,78.76
2022-08-22T22:13:54.752Z,78.81
2022-08-22T22:16:28.727Z,78.93
2022-08-22T22:18:57.462Z,78.64
2022-08-22T22:21:25.828Z,78.99
2022-08-22T22:23:54.200Z,79.85
2022-08-22T22:26:27.132Z,79.70
2022-08-22T22:28:55.657Z,79.55
2022-08-22T22:31:23.962Z,79.86
2022-08-22T22:33:52.317Z,80.14
2022-08-22T22:36:26.892Z,80.03
2022-08-22T22:38:55.481Z,80.11
2022-08-22T22:41:25.884Z,80.25
2022-08-22T22:43:55.573Z,79.93
2022-08-22T22:46:24.429Z,79.61
2022-08-22T22:48:53.619Z,79.50
2022-08-22T22:51:22.405Z,79.65
2022-08-22T22:53:51.189Z,79.69
2022-08-22T22:56:21.833Z,79.42
2022-08-22T22:58:50.879Z,79.27
2022-08-22T23:01:29.422Z,79.70
2022-08-22T23:04:05.484Z,80.60
2022-08-22T23:06:34.990Z,81.32
2022-08-22T23:09:03.448Z,81.64
2022-08-22T23:11:31.898Z,81.73
2022-08-22T23:14:02.872Z,81.86
2022-08-22T23:16:36.988Z,81.61
2022-08-22T23:19:11.202Z,81.75
2022-08-22T23:21:41.285Z,82.16
2022-08-22T23:24:10.605Z,82.00
2022-08-22T23:26:39.610Z,82.31
2022-08-22T23:29:08.220Z,82.41
2022-08-22T23:31:49.185Z,83.05
2022-08-22T23:34:24.165Z,83.60
2022-08-22T23:36:54.895Z,83.54
2022-08-22T23:39:25.198Z,83.72
2022-08-22T23:41:54.530Z,83.92
2022-08-22T23:44:28.229Z,84.20
2022-08-22T23:46:58.067Z,84.19
2022-08-22T23:49:28.317Z,84.28
2022-08-22T23:51:58.193Z,84.13
2022-08-22T23:54:26.735Z,84.49
2022-08-22T23:56:58.177Z,84.29
2022-08-22T23:59:34.003Z,84.37
